createdAt,value
2022-10-01T00:00:11.379Z,20.3
2022-10-01T00:02:42.971Z,20.3
2022-10-01T00:05:14.483Z,20.4
2022-10-01T00:07:46.589Z,20.3
2022-10-01T00:10:17.696Z,20.3
2022-10-01T00:12:48.842Z,20.3
2022-10-01T00:15:20.459Z,20.4
2022-10-01T00:17:52.732Z,20.4
2022-10-01T00:20:24.606Z,20.3
2022-10-01T00:22:55.533Z,20.4
2022-10-01T00:25:26.775Z,20.3
2022-10-01T00:27:58.327Z,20.3
2022-10-01T00:30:28.600Z,20.3
2022-10-01T00:32:59.275Z,20.3
2022-10-01T00:35:30.663Z,20.4
2022-10-01T00:38:02.591Z,20.3
2022-10-01T00:40:32.653Z,20.3
2022-10-01T00:43:03.685Z,20.2
2022-10-01T00:45:35.008Z,20.2
2022-10-01T00:48:06.289Z,20.3
2022-10-01T00:50:38.009Z,20.2
2022-10-01T00:53:07.479Z,20.3
2022-10-01T00:55:38.634Z,20.2
2022-10-01T00:58:09.918Z,20.2
2022-10-01T01:00:41.081Z,20.3
2022-10-01T01:03:12.440Z,20.2
2022-10-01T01:05:43.502Z,20.3
2022-10-01T01:08:14.790Z,20.3
2022-10-01T01:10:44.680Z,20.4
2022-10-01T01:13:15.177Z,20.4
2022-10-01T01:15:46.773Z,20.4
2022-10-01T01:18:18.264Z,20.4
2022-10-01T01:20:49.488Z,20.5
2022-10-01T01:23:23.012Z,20.5
2022-10-01T01:25:55.262Z,20.5
2022-10-01T01:28:26.585Z,20.5
2022-10-01T01:30:58.174Z,20.5
2022-10-01T01:33:29.765Z,20.5
2022-10-01T01:36:00.841Z,20.5
2022-10-01T01:38:31.169Z,20.5
2022-10-01T01:41:02.963Z,20.5
2022-10-01T01:43:34.866Z,20.5
2022-10-01T01:46:06.659Z,20.5
2022-10-01T01:48:38.095Z,20.4
2022-10-01T01:51:09.636Z,20.5
2022-10-01T01:53:40.942Z,20.5
2022-10-01T01:56:11.658Z,20.4
2022-10-01T01:58:43.208Z,20.4
2022-10-01T02:01:13.246Z,20.4
2022-10-01T02:03:44.411Z,20.5
2022-10-01T02:06:15.616Z,20.5
2022-10-01T02:08:47.331Z,20.5
2022-10-01T02:11:18.267Z,20.5
2022-10-01T02:13:50.008Z,20.5
2022-10-01T02:16:21.777Z,20.5
2022-10-01T02:18:53.081Z,20.6
2022-10-01T02:21:24.597Z,20.6
2022-10-01T02:23:56.122Z,20.6
2022-10-01T02:26:27.480Z,20.7
2022-10-01T02:28:59.179Z,20.7
2022-10-01T02:31:30.109Z,20.7
2022-10-01T02:34:01.814Z,20.8
2022-10-01T02:36:33.839Z,20.8
2022-10-01T02:39:04.926Z,20.8
2022-10-01T02:41:37.237Z,20.8
2022-10-01T02:44:08.948Z,20.8
2022-10-01T02:46:40.389Z,20.8
2022-10-01T02:49:12.293Z,20.8
2022-10-01T02:51:43.883Z,20.8
2022-10-01T02:54:15.540Z,20.8
2022-10-01T02:56:48.934Z,20.9
2022-10-01T02:59:19.156Z,20.8
2022-10-01T03:01:52.086Z,20.8
2022-10-01T03:04:23.764Z,20.9
2022-10-01T03:06:54.880Z,21
2022-10-01T03:09:26.601Z,20.9
2022-10-01T03:11:58.243Z,20.9
2022-10-01T03:14:30.122Z,20.9
2022-10-01T03:17:02.368Z,20.9
2022-10-01T03:19:33.948Z,20.9
2022-10-01T03:22:04.775Z,20.8
2022-10-01T03:24:36.470Z,20.8
2022-10-01T03:27:06.314Z,20.7
2022-10-01T03:29:37.938Z,20.7
2022-10-01T03:32:10.105Z,20.7
2022-10-01T03:34:42.649Z,20.6
2022-10-01T03:37:13.578Z,20.7
2022-10-01T03:39:45.512Z,20.7
2022-10-01T03:42:16.552Z,20.7
2022-10-01T03:44:49.208Z,20.7
2022-10-01T03:47:20.596Z,20.6
2022-10-01T03:49:51.771Z,20.6
2022-10-01T03:52:23.546Z,20.6
2022-10-01T03:54:55.919Z,20.6
2022-10-01T03:57:26.871Z,20.7
2022-10-01T03:59:58.285Z,20.6
2022-10-01T04:02:30.247Z,20.6
2022-10-01T04:05:02.128Z,20.6
2022-10-01T04:07:33.926Z,20.6
2022-10-01T04:10:06.223Z,20.6
2022-10-01T04:12:38.670Z,20.6
2022-10-01T04:15:10.099Z,20.7
2022-10-01T04:17:45.205Z,20.7
2022-10-01T04:20:13.348Z,20.7
2022-10-01T04:22:43.967Z,20.7
2022-10-01T04:25:15.630Z,20.7
2022-10-01T04:27:47.151Z,20.7
2022-10-01T04:30:18.809Z,20.7
2022-10-01T04:32:51.300Z,20.8
2022-10-01T04:35:22.608Z,20.7
2022-10-01T04:37:55.248Z,20.7
2022-10-01T04:40:26.566Z,20.7
2022-10-01T04:42:58.265Z,20.6
2022-10-01T04:45:29.541Z,20.4
2022-10-01T04:48:01.512Z,20.3
2022-10-01T04:50:33.523Z,20.3
2022-10-01T04:53:06.198Z,20.2
2022-10-01T04:55:38.694Z,20.2
2022-10-01T04:58:14.575Z,20.2
2022-10-01T05:00:46.901Z,20.2
2022-10-01T05:03:17.967Z,20.3
2022-10-01T05:05:49.390Z,20.3
2022-10-01T05:08:21.323Z,20.2
2022-10-01T05:10:52.959Z,20.3
2022-10-01T05:13:24.473Z,20.3
2022-10-01T05:15:55.973Z,20.3
2022-10-01T05:18:27.601Z,20.3
2022-10-01T05:20:59.375Z,20.3
2022-10-01T05:23:30.526Z,20.4
2022-10-01T05:26:02.185Z,20.4
2022-10-01T05:28:34.095Z,20.4
2022-10-01T05:31:06.301Z,20.5
2022-10-01T05:33:37.618Z,20.5
2022-10-01T05:36:09.259Z,20.6
2022-10-01T05:38:40.789Z,20.5
2022-10-01T05:41:12.249Z,20.4
2022-10-01T05:43:43.769Z,20.3
2022-10-01T05:46:15.193Z,20.3
2022-10-01T05:48:46.660Z,20.3
2022-10-01T05:51:18.258Z,20.4
2022-10-01T05:53:50.402Z,20.4
2022-10-01T05:56:21.203Z,20.5
2022-10-01T05:58:52.603Z,20.3
2022-10-01T06:01:23.987Z,20.3
2022-10-01T06:03:55.195Z,20.4
2022-10-01T06:06:27.023Z,20.5
2022-10-01T06:08:57.382Z,20.5
2022-10-01T06:11:28.636Z,20.6
2022-10-01T06:14:00.292Z,20.6
2022-10-01T06:16:31.767Z,20.8
2022-10-01T06:19:03.383Z,20.7
2022-10-01T06:21:34.880Z,20.8
2022-10-01T06:24:06.501Z,20.7
2022-10-01T06:26:37.824Z,20.8
2022-10-01T06:29:08.931Z,20.8
2022-10-01T06:31:40.491Z,20.8
2022-10-01T06:34:11.397Z,20.7
2022-10-01T06:36:44.797Z,20.8
2022-10-01T06:39:16.670Z,20.9
2022-10-01T06:41:47.758Z,20.8
2022-10-01T06:44:19.146Z,20.8
2022-10-01T06:46:50.200Z,20.7
2022-10-01T06:49:21.854Z,20.8
2022-10-01T06:51:54.424Z,20.7
2022-10-01T06:54:25.570Z,20.7
2022-10-01T06:56:57.162Z,20.7
2022-10-01T06:59:29.108Z,20.8
2022-10-01T07:01:59.956Z,20.8
2022-10-01T07:04:30.623Z,20.9
2022-10-01T07:07:02.064Z,20.8
2022-10-01T07:09:32.910Z,20.8
2022-10-01T07:12:04.167Z,20.9
2022-10-01T07:14:35.271Z,20.9
2022-10-01T07:17:06.664Z,20.9
2022-10-01T07:19:37.829Z,21
2022-10-01T07:22:09.746Z,21
2022-10-01T07:24:40.852Z,21
2022-10-01T07:27:11.993Z,21.1
2022-10-01T07:29:43.625Z,21.2
2022-10-01T07:32:15.174Z,21.3
2022-10-01T07:34:46.403Z,21.3
2022-10-01T07:37:17.243Z,21.5
2022-10-01T07:39:48.175Z,21.5
2022-10-01T07:42:20.571Z,21.6
2022-10-01T07:44:52.281Z,21.7
2022-10-01T07:47:23.945Z,21.7
2022-10-01T07:49:55.712Z,21.7
2022-10-01T07:52:28.548Z,21.7
2022-10-01T07:55:00.130Z,21.7
2022-10-01T07:57:31.765Z,21.7
2022-10-01T08:00:04.064Z,21.7
2022-10-01T08:02:36.628Z,21.7
2022-10-01T08:05:08.393Z,21.7
2022-10-01T08:07:39.339Z,21.7
2022-10-01T08:10:11.006Z,21.7
2022-10-01T08:12:42.743Z,21.8
2022-10-01T08:15:17.209Z,21.8
2022-10-01T08:17:49.331Z,21.8
2022-10-01T08:20:20.660Z,21.8
2022-10-01T08:22:52.263Z,21.9
2022-10-01T08:25:23.981Z,22
2022-10-01T08:27:55.358Z,22
2022-10-01T08:30:27.648Z,22
2022-10-01T08:32:59.021Z,22
2022-10-01T08:35:29.980Z,22
2022-10-01T08:38:01.771Z,22.1
2022-10-01T08:40:33.383Z,22.1
2022-10-01T08:43:04.820Z,22.1
2022-10-01T08:45:36.752Z,22.2
2022-10-01T08:48:08.296Z,22.2
2022-10-01T08:50:39.725Z,22.2
2022-10-01T08:53:11.172Z,22.1
2022-10-01T08:55:42.575Z,22.2
2022-10-01T08:58:14.005Z,22.2
2022-10-01T09:00:46.198Z,22.2
2022-10-01T09:03:18.115Z,22.3
2022-10-01T09:05:49.610Z,22.2
2022-10-01T09:08:21.824Z,22.3
2022-10-01T09:10:53.464Z,22.3
2022-10-01T09:13:26.179Z,22.2
2022-10-01T09:15:57.656Z,22.3
2022-10-01T09:18:29.339Z,22.3
2022-10-01T09:21:00.374Z,22.2
2022-10-01T09:23:31.529Z,22.3
2022-10-01T09:26:02.441Z,22.4
2022-10-01T09:28:34.221Z,22.5
2022-10-01T09:31:06.909Z,22.5
2022-10-01T09:33:38.154Z,22.4
2022-10-01T09:36:09.937Z,22.5
2022-10-01T09:38:41.647Z,22.6
2022-10-01T09:41:13.494Z,22.7
2022-10-01T09:43:45.500Z,22.7
2022-10-01T09:46:18.696Z,22.8
2022-10-01T09:48:50.468Z,22.9
2022-10-01T09:51:22.124Z,22.9
2022-10-01T09:53:53.319Z,22.9
2022-10-01T09:56:25.411Z,22.9
2022-10-01T09:58:56.161Z,23
2022-10-01T10:01:28.439Z,23
2022-10-01T10:04:01.548Z,23.1
2022-10-01T10:06:33.940Z,23.1
2022-10-01T10:09:05.199Z,23.1
2022-10-01T10:11:37.122Z,23.2
2022-10-01T10:14:08.427Z,23.3
2022-10-01T10:16:42.715Z,23.4
2022-10-01T10:19:14.451Z,23.4
2022-10-01T10:21:49.365Z,23.5
2022-10-01T10:24:20.834Z,23.5
2022-10-01T10:26:52.016Z,23.6
2022-10-01T10:29:24.473Z,23.7
2022-10-01T10:31:55.200Z,23.7
2022-10-01T10:34:26.482Z,23.8
2022-10-01T10:36:57.371Z,23.9
2022-10-01T10:39:32.000Z,24
2022-10-01T10:42:03.271Z,24.1
2022-10-01T10:44:34.314Z,24.2
2022-10-01T10:47:05.510Z,24.4
2022-10-01T10:49:36.844Z,24.5
2022-10-01T10:52:09.023Z,24.6
2022-10-01T10:54:40.250Z,24.7
2022-10-01T10:57:13.781Z,24.9
2022-10-01T10:59:48.172Z,25
2022-10-01T11:02:19.631Z,25
2022-10-01T11:04:50.380Z,25.1
2022-10-01T11:07:21.857Z,25.1
2022-10-01T11:09:53.251Z,25.1
2022-10-01T11:12:24.371Z,25.2
2022-10-01T11:14:55.300Z,25.2
2022-10-01T11:17:26.558Z,25.3
2022-10-01T11:19:58.296Z,25.4
2022-10-01T11:22:29.612Z,25.4
2022-10-01T11:25:00.563Z,25.5
2022-10-01T11:27:31.399Z,25.6
2022-10-01T11:30:02.649Z,25.6
2022-10-01T11:32:34.511Z,25.6
2022-10-01T11:35:06.472Z,25.6
2022-10-01T11:37:37.591Z,25.7
2022-10-01T11:40:07.470Z,25.6
2022-10-01T11:42:39.405Z,25.7
2022-10-01T11:45:09.795Z,25.6
2022-10-01T11:47:40.860Z,25.6
2022-10-01T11:50:11.581Z,25.6
2022-10-01T11:52:43.112Z,25.6
2022-10-01T11:55:14.948Z,25.5
2022-10-01T11:57:46.325Z,25.6
2022-10-01T12:00:17.325Z,25.7
2022-10-01T12:02:48.574Z,25.6
2022-10-01T12:05:19.830Z,25.5
2022-10-01T12:07:50.640Z,25.6
2022-10-01T12:10:22.013Z,25.6
2022-10-01T12:12:53.041Z,25.6
2022-10-01T12:15:24.744Z,25.7
2022-10-01T12:17:55.681Z,25.6
2022-10-01T12:20:27.240Z,25.6
2022-10-01T12:22:59.217Z,25.6
2022-10-01T12:25:30.702Z,25.6
2022-10-01T12:28:02.011Z,25.5
2022-10-01T12:30:33.761Z,25.4
2022-10-01T12:33:06.652Z,25.5
2022-10-01T12:35:38.197Z,25.6
2022-10-01T12:38:09.833Z,25.5
2022-10-01T12:40:41.595Z,25.6
2022-10-01T12:43:13.560Z,25.8
2022-10-01T12:45:45.084Z,25.9
2022-10-01T12:48:19.300Z,26
2022-10-01T12:50:51.309Z,26.1
2022-10-01T12:53:23.222Z,26.2
2022-10-01T12:55:55.671Z,26.5
2022-10-01T12:58:26.270Z,26.6
2022-10-01T13:00:57.620Z,26.6
2022-10-01T13:03:29.044Z,26.8
2022-10-01T13:06:00.663Z,26.9
2022-10-01T13:08:31.986Z,27.1
2022-10-01T13:11:03.469Z,27.2
2022-10-01T13:13:35.084Z,27.3
2022-10-01T13:16:06.894Z,27.4
2022-10-01T13:18:38.034Z,27.4
2022-10-01T13:21:10.373Z,27.4
2022-10-01T13:23:41.684Z,27.4
2022-10-01T13:26:13.838Z,27.2
2022-10-01T13:28:44.943Z,27.2
2022-10-01T13:31:16.449Z,27.2
2022-10-01T13:33:47.253Z,27.1
2022-10-01T13:36:18.608Z,27.1
2022-10-01T13:38:49.988Z,27.1
2022-10-01T13:41:22.336Z,27.1
2022-10-01T13:43:55.503Z,27.1
2022-10-01T13:46:26.926Z,27.1
2022-10-01T13:48:58.563Z,27
2022-10-01T13:51:30.145Z,27
2022-10-01T13:54:01.494Z,26.8
2022-10-01T13:56:33.062Z,26.8
2022-10-01T13:59:04.082Z,26.7
2022-10-01T14:01:35.643Z,26.7
2022-10-01T14:04:07.964Z,26.6
2022-10-01T14:06:39.013Z,26.5
2022-10-01T14:09:10.216Z,26.6
2022-10-01T14:11:41.444Z,26.6
2022-10-01T14:14:13.461Z,26.5
2022-10-01T14:16:44.874Z,26.5
2022-10-01T14:19:14.577Z,26.3
2022-10-01T14:21:46.034Z,26.4
2022-10-01T14:24:17.619Z,26.4
2022-10-01T14:26:48.680Z,26.4
2022-10-01T14:29:18.595Z,26.1
2022-10-01T14:31:51.303Z,25.9
2022-10-01T14:34:22.773Z,25.6
2022-10-01T14:36:53.893Z,25.2
2022-10-01T14:39:25.066Z,24.9
2022-10-01T14:41:56.377Z,24.6
2022-10-01T14:44:27.493Z,24.4
2022-10-01T14:46:58.722Z,24.3
2022-10-01T14:49:29.297Z,24.1
2022-10-01T14:52:00.962Z,23.9
2022-10-01T14:54:31.702Z,23.8
2022-10-01T14:57:05.135Z,23.5
2022-10-01T14:59:37.872Z,23.4
2022-10-01T15:02:11.460Z,23.3
2022-10-01T15:04:43.853Z,23.2
2022-10-01T15:07:15.561Z,23.1
2022-10-01T15:09:47.351Z,23
2022-10-01T15:12:17.476Z,22.9
2022-10-01T15:14:49.506Z,22.8
2022-10-01T15:17:21.528Z,22.7
2022-10-01T15:19:52.753Z,22.7
2022-10-01T15:22:23.793Z,22.6
2022-10-01T15:24:55.506Z,22.6
2022-10-01T15:27:27.371Z,22.5
2022-10-01T15:29:58.904Z,22.4
2022-10-01T15:32:31.393Z,22.1
2022-10-01T15:35:03.075Z,21.7
2022-10-01T15:37:34.257Z,21.5
2022-10-01T15:40:06.630Z,21.4
2022-10-01T15:42:39.012Z,21.5
2022-10-01T15:45:10.338Z,21.2
2022-10-01T15:47:44.904Z,21.2
2022-10-01T15:50:16.707Z,21.3
2022-10-01T15:52:47.865Z,21
2022-10-01T15:55:19.416Z,20.9
2022-10-01T15:57:51.426Z,21
2022-10-01T16:00:23.348Z,21.1
2022-10-01T16:02:55.150Z,20.9
2022-10-01T16:05:26.606Z,20.7
2022-10-01T16:07:58.443Z,21
2022-10-01T16:10:31.073Z,20.9
2022-10-01T16:13:03.707Z,20.8
2022-10-01T16:15:33.723Z,20.8
2022-10-01T16:18:06.265Z,20.7
2022-10-01T16:20:38.139Z,20.7
2022-10-01T16:23:09.551Z,20.5
2022-10-01T16:25:43.279Z,20.6
2022-10-01T16:28:15.358Z,20.6
2022-10-01T16:30:47.160Z,20.4
2022-10-01T16:33:16.968Z,20.3
2022-10-01T16:35:48.560Z,20.3
2022-10-01T16:38:20.088Z,20.4
2022-10-01T16:40:51.767Z,20.4
2022-10-01T16:43:24.259Z,20.3
2022-10-01T16:45:55.721Z,20.5
2022-10-01T16:48:30.093Z,20.6
2022-10-01T16:51:01.746Z,20.5
2022-10-01T16:53:33.319Z,20.5
2022-10-01T16:56:04.899Z,20.5
2022-10-01T16:58:34.830Z,20.4
2022-10-01T17:01:06.761Z,20.4
2022-10-01T17:03:38.327Z,20.5
2022-10-01T17:06:10.180Z,20.5
2022-10-01T17:08:41.910Z,20.4
2022-10-01T17:11:13.894Z,20.3
2022-10-01T17:13:45.693Z,20.1
2022-10-01T17:16:18.058Z,20.1
2022-10-01T17:18:48.384Z,20.3
2022-10-01T17:21:18.700Z,20.4
2022-10-01T17:23:53.542Z,20.5
2022-10-01T17:26:23.595Z,20.6
2022-10-01T17:28:56.036Z,20.4
2022-10-01T17:31:27.402Z,20.5
2022-10-01T17:33:59.714Z,20.4
2022-10-01T17:36:31.024Z,20.2
2022-10-01T17:39:01.002Z,20.3
2022-10-01T17:41:32.080Z,20.2
2022-10-01T17:44:03.674Z,20.3
2022-10-01T17:46:35.934Z,20.3
2022-10-01T17:49:07.198Z,20.3
2022-10-01T17:51:38.717Z,20.3
2022-10-01T17:54:10.150Z,20.3
2022-10-01T17:56:41.394Z,20.1
2022-10-01T17:59:12.639Z,20.2
2022-10-01T18:01:45.471Z,20.1
2022-10-01T18:04:16.624Z,20.1
2022-10-01T18:06:47.780Z,20.2
2022-10-01T18:09:19.302Z,20.1
2022-10-01T18:11:49.179Z,20.1
2022-10-01T18:14:22.101Z,20.1
2022-10-01T18:16:53.542Z,20.1
2022-10-01T18:21:55.707Z,20.1
2022-10-01T18:24:27.244Z,20.1
2022-10-01T18:26:58.934Z,20.1
2022-10-01T18:29:32.087Z,20.2
2022-10-01T18:32:07.472Z,20.2
2022-10-01T18:34:37.980Z,20.1
2022-10-01T18:37:09.685Z,20.1
2022-10-01T18:39:42.384Z,20.1
2022-10-01T18:42:15.123Z,20
2022-10-01T18:44:47.210Z,20
2022-10-01T18:47:19.443Z,20
2022-10-01T18:49:51.910Z,20
2022-10-01T18:52:24.611Z,20
2022-10-01T18:54:56.453Z,20.1
2022-10-01T18:57:28.765Z,20
2022-10-01T19:00:00.454Z,19.9
2022-10-01T19:02:32.081Z,19.9
2022-10-01T19:05:03.607Z,19.9
2022-10-01T19:07:35.122Z,19.9
2022-10-01T19:10:08.009Z,20
2022-10-01T19:12:39.672Z,19.9
2022-10-01T19:15:11.445Z,19.9
2022-10-01T19:17:42.654Z,20
2022-10-01T19:20:18.709Z,19.9
2022-10-01T19:22:50.623Z,19.8
2022-10-01T19:25:23.122Z,19.7
2022-10-01T19:27:54.631Z,19.7
2022-10-01T19:30:26.397Z,19.8
2022-10-01T19:33:00.441Z,19.9
2022-10-01T19:35:37.445Z,19.8
2022-10-01T19:38:10.477Z,19.9
2022-10-01T19:40:42.201Z,19.9
2022-10-01T19:43:13.928Z,19.9
2022-10-01T19:45:50.847Z,19.9
2022-10-01T19:48:23.586Z,20
2022-10-01T19:50:55.250Z,19.9
2022-10-01T19:53:27.345Z,19.9
2022-10-01T19:55:59.445Z,19.8
2022-10-01T19:58:31.219Z,19.8
2022-10-01T20:01:03.367Z,19.9
2022-10-01T20:03:37.625Z,19.9
2022-10-01T20:06:09.923Z,20
2022-10-01T20:08:42.064Z,19.6
2022-10-01T20:11:14.876Z,19.7
2022-10-01T20:13:46.582Z,19.7
2022-10-01T20:16:18.457Z,19.7
2022-10-01T20:18:50.048Z,19.6
2022-10-01T20:21:28.825Z,19.7
2022-10-01T20:24:00.028Z,19.7
2022-10-01T20:26:32.202Z,19.7
2022-10-01T20:29:03.512Z,19.7
2022-10-01T20:31:35.236Z,19.7
2022-10-01T20:34:09.453Z,19.7
2022-10-01T20:36:41.734Z,19.5
2022-10-01T20:39:13.151Z,19.4
2022-10-01T20:41:46.808Z,19.4
2022-10-01T20:44:18.428Z,19.4
2022-10-01T20:46:50.172Z,19.5
2022-10-01T20:49:22.924Z,19.5
2022-10-01T20:51:54.231Z,19.4
2022-10-01T20:54:26.045Z,19.5
2022-10-01T20:56:57.616Z,19.3
2022-10-01T20:59:29.348Z,19.1
2022-10-01T21:02:00.421Z,19.2
2022-10-01T21:04:31.591Z,19.3
2022-10-01T21:07:04.613Z,19.1
2022-10-01T21:09:36.760Z,19.3
2022-10-01T21:12:08.347Z,19.4
2022-10-01T21:14:40.205Z,19.3
2022-10-01T21:17:12.385Z,19.3
2022-10-01T21:19:42.669Z,19.2
2022-10-01T21:22:15.107Z,19.2
2022-10-01T21:24:46.150Z,19.1
2022-10-01T21:27:18.078Z,19.2
2022-10-01T21:29:49.862Z,19.1
2022-10-01T21:32:21.875Z,19
2022-10-01T21:34:53.644Z,19.1
2022-10-01T21:37:25.340Z,19.2
2022-10-01T21:39:56.643Z,19.1
2022-10-01T21:42:28.805Z,19
2022-10-01T21:45:00.547Z,19
2022-10-01T21:47:32.104Z,19
2022-10-01T21:50:03.905Z,19.1
2022-10-01T21:52:35.159Z,18.9
2022-10-01T21:55:06.918Z,19
2022-10-01T21:57:38.929Z,19
2022-10-01T22:00:10.749Z,19
2022-10-01T22:02:42.585Z,19
2022-10-01T22:05:14.665Z,18.9
2022-10-01T22:07:46.304Z,18.9
2022-10-01T22:10:17.461Z,18.9
2022-10-01T22:12:48.352Z,18.9
2022-10-01T22:15:19.258Z,18.7
2022-10-01T22:17:50.443Z,18.8
2022-10-01T22:20:21.580Z,18.9
2022-10-01T22:22:52.578Z,18.9
2022-10-01T22:25:23.757Z,18.9
2022-10-01T22:27:55.464Z,18.8
2022-10-01T22:30:25.846Z,18.9
2022-10-01T22:32:57.063Z,18.8
2022-10-01T22:35:28.425Z,18.8
2022-10-01T22:37:59.431Z,18.7
2022-10-01T22:40:30.538Z,18.7
2022-10-01T22:43:01.479Z,18.9
2022-10-01T22:45:32.430Z,18.9
2022-10-01T22:48:03.588Z,18.7
2022-10-01T22:50:34.846Z,18.6
2022-10-01T22:53:06.927Z,18.7
2022-10-01T22:55:38.319Z,18.8
2022-10-01T22:58:11.392Z,18.6
2022-10-01T23:00:43.568Z,18.7
2022-10-01T23:03:14.969Z,18.6
2022-10-01T23:05:46.171Z,18.6
2022-10-01T23:08:17.599Z,18.6
2022-10-01T23:10:49.004Z,18.5
2022-10-01T23:13:20.245Z,18.5
2022-10-01T23:15:51.589Z,18.4
2022-10-01T23:18:23.019Z,18.4
2022-10-01T23:20:54.072Z,18.4
2022-10-01T23:23:27.316Z,18.5
2022-10-01T23:25:58.605Z,18.4
2022-10-01T23:28:28.737Z,18.4
2022-10-01T23:31:00.160Z,18.4
2022-10-01T23:33:31.494Z,18.5
2022-10-01T23:36:05.620Z,18.5
2022-10-01T23:38:37.270Z,18.4
2022-10-01T23:41:08.520Z,18.4
2022-10-01T23:43:39.719Z,18.5
2022-10-01T23:46:09.458Z,18.4
2022-10-01T23:48:40.428Z,18.4
2022-10-01T23:51:12.021Z,18.5
2022-10-01T23:53:43.662Z,18.5
2022-10-01T23:56:14.346Z,18.5
2022-10-01T23:58:45.405Z,18.5
